Edgemont, South Dakota
Current Conditions -  °F | °C
As of 6:53 AM on Tuesday 21 Oct 2014 (Local Time) from KCUT Reporting Station
Clear Clear  
Wind Chill: 54°   Ceiling: Unl
Heat Index: 54°   Visibility: 10mi
Dew Point: 33°   Wind: 6mph
Humidity: 45%   Direction: 260°W
Pressure: 29.97"   Gusts: NA
Location:  43.3°N, 103.83°W
Report Text: KCUT 211253Z AUTO 26005KT 10SM CLR 12/01 A2997 RMK AO2 SLP099 T01220006
Loading
Personal Weather Stations






























Interactive Weather Map
Tropical Storm Tracking
New forecast layout! Learn more

10-Day Weather Forecast

Advertisements
Track Severe Weather on mobile